createdAt,value
2023-02-16T00:01:29.164Z,40.85
2023-02-16T00:03:56.742Z,46.55
2023-02-16T00:06:27.798Z,50.55
2023-02-16T00:08:56.222Z,56.33
2023-02-16T00:11:52.808Z,40.38
2023-02-16T00:14:26.239Z,43.60
2023-02-16T00:16:54.977Z,46.90
2023-02-16T00:19:28.470Z,42.67
2023-02-16T00:21:57.613Z,41.10
2023-02-16T00:24:26.742Z,39.97
2023-02-16T00:26:54.447Z,45.35
2023-02-16T00:29:24.881Z,40.83
2023-02-16T00:31:52.579Z,40.38
2023-02-16T00:34:28.100Z,44.95
2023-02-16T00:36:55.831Z,39.53
2023-02-16T00:39:25.068Z,40.85
2023-02-16T00:41:56.303Z,37.38
2023-02-16T00:44:33.572Z,37.88
2023-02-16T00:47:15.399Z,38.10
2023-02-16T00:49:42.287Z,37.03
2023-02-16T00:54:39.081Z,40.90
2023-02-16T00:59:32.622Z,39.97
2023-02-16T01:04:26.272Z,39.70
2023-02-16T01:07:11.691Z,42.97
2023-02-16T01:09:57.238Z,39.53
2023-02-16T01:12:24.282Z,40.97
2023-02-16T01:14:54.318Z,43.53
2023-02-16T01:17:21.709Z,41.25
2023-02-16T01:19:48.631Z,46.60
2023-02-16T01:22:15.997Z,42.55
2023-02-16T01:24:42.896Z,52.88
2023-02-16T01:27:12.750Z,86.12
2023-02-16T01:29:39.802Z,64.55
2023-02-16T01:32:06.715Z,44.00
2023-02-16T01:34:33.696Z,47.47
2023-02-16T01:39:27.243Z,104.80
2023-02-16T01:42:06.212Z,106.82
2023-02-16T01:44:34.996Z,73.12
2023-02-16T01:47:07.443Z,115.75
2023-02-16T01:49:34.340Z,114.70
2023-02-16T01:52:11.471Z,89.28
2023-02-16T01:54:40.780Z,77.57
2023-02-16T01:57:10.609Z,53.53
2023-02-16T01:59:49.628Z,51.25
2023-02-16T02:02:22.942Z,57.00
2023-02-16T02:05:19.571Z,51.45
2023-02-16T02:08:00.055Z,62.00
2023-02-16T02:10:52.904Z,56.85
2023-02-16T02:13:37.072Z,59.65
2023-02-16T02:16:05.567Z,53.17
2023-02-16T02:18:32.576Z,46.85
2023-02-16T02:21:55.760Z,44.63
2023-02-16T02:24:43.932Z,55.08
2023-02-16T02:27:19.560Z,61.90
2023-02-16T02:30:20.599Z,62.03
2023-02-16T02:33:29.668Z,76.72
2023-02-16T02:36:07.848Z,76.57
2023-02-16T02:38:52.788Z,69.75
2023-02-16T02:41:54.415Z,65.90
2023-02-16T02:44:23.041Z,72.15
2023-02-16T02:46:50.259Z,62.65
2023-02-16T02:49:17.188Z,64.87
2023-02-16T02:51:44.091Z,65.32
2023-02-16T02:54:53.633Z,61.67
2023-02-16T02:58:00.252Z,64.82
2023-02-16T03:00:44.101Z,61.08
2023-02-16T03:03:23.138Z,65.15
2023-02-16T03:05:55.925Z,66.18
2023-02-16T03:08:25.332Z,90.05
2023-02-16T03:11:17.272Z,95.50
2023-02-16T03:13:47.898Z,84.28
2023-02-16T03:16:19.584Z,91.35
2023-02-16T03:19:05.913Z,74.00
2023-02-16T03:21:52.431Z,60.12
2023-02-16T03:24:46.729Z,77.47
2023-02-16T03:27:34.502Z,108.57
2023-02-16T03:30:02.526Z,84.82
2023-02-16T03:32:29.472Z,57.10
2023-02-16T03:34:56.450Z,51.88
2023-02-16T03:37:23.474Z,49.38
2023-02-16T03:40:09.087Z,49.92
2023-02-16T03:42:35.936Z,46.97
2023-02-16T03:47:29.506Z,49.47
2023-02-16T03:52:23.030Z,44.30
2023-02-16T03:57:17.168Z,47.30
2023-02-16T03:59:44.016Z,51.13
2023-02-16T04:04:37.666Z,51.33
2023-02-16T04:07:04.550Z,54.75
2023-02-16T04:12:16.482Z,55.85
2023-02-16T04:14:43.845Z,66.05
2023-02-16T04:17:10.801Z,78.00
2023-02-16T04:19:37.698Z,84.32
2023-02-16T04:22:04.569Z,170.25
2023-02-16T04:26:58.123Z,247.15
2023-02-16T04:29:25.006Z,223.65
2023-02-16T04:31:52.027Z,168.27
2023-02-16T04:34:19.056Z,125.28
2023-02-16T04:36:45.919Z,85.60
2023-02-16T04:41:39.486Z,62.88
2023-02-16T04:46:33.057Z,55.97
2023-02-16T04:49:00.025Z,65.00
2023-02-16T04:51:26.950Z,93.80
2023-02-16T04:53:53.804Z,112.72
2023-02-16T04:58:47.379Z,118.45
2023-02-16T05:01:25.819Z,133.37
2023-02-16T05:03:52.728Z,128.87
2023-02-16T05:08:47.022Z,120.57
2023-02-16T05:11:32.369Z,95.65
2023-02-16T05:14:22.849Z,117.30
2023-02-16T05:16:49.765Z,110.50
2023-02-16T05:19:16.739Z,161.23
2023-02-16T05:21:43.616Z,162.30
2023-02-16T05:26:42.283Z,147.75
2023-02-16T05:29:09.229Z,143.98
2023-02-16T05:31:36.189Z,160.25
2023-02-16T05:34:03.172Z,81.03
2023-02-16T05:36:30.068Z,73.15
2023-02-16T05:38:57.062Z,129.98
2023-02-16T05:41:23.968Z,119.30
2023-02-16T05:43:58.906Z,123.20
2023-02-16T05:46:26.660Z,103.95
2023-02-16T05:48:53.689Z,103.68
2023-02-16T05:51:21.258Z,103.05
2023-02-16T05:53:48.125Z,78.18
2023-02-16T05:56:15.392Z,76.45
2023-02-16T05:58:42.428Z,73.22
2023-02-16T06:01:09.288Z,84.53
2023-02-16T06:06:04.858Z,42.05
2023-02-16T06:08:32.678Z,47.20
2023-02-16T06:10:59.982Z,49.20
2023-02-16T06:13:26.905Z,48.22
2023-02-16T06:15:55.633Z,58.87
2023-02-16T06:18:24.006Z,60.72
2023-02-16T06:20:51.014Z,109.28
2023-02-16T06:23:18.247Z,130.55
2023-02-16T06:25:50.536Z,151.05
2023-02-16T06:28:17.463Z,84.72
2023-02-16T06:30:44.299Z,89.10
2023-02-16T06:35:37.913Z,61.58
2023-02-16T06:40:31.455Z,70.30
2023-02-16T06:45:24.981Z,91.12
2023-02-16T06:50:19.270Z,123.62
2023-02-16T06:52:46.163Z,163.50
2023-02-16T06:55:13.054Z,147.40
2023-02-16T06:57:39.908Z,162.60
2023-02-16T07:02:35.830Z,92.88
2023-02-16T07:05:03.436Z,96.15
2023-02-16T07:07:31.427Z,74.82
2023-02-16T07:09:58.452Z,64.12
2023-02-16T07:12:25.311Z,35.83
2023-02-16T07:17:18.849Z,40.03
2023-02-16T07:22:12.740Z,35.70
2023-02-16T07:24:39.620Z,39.20
2023-02-16T07:27:07.059Z,34.65
2023-02-16T07:29:33.901Z,33.33
2023-02-16T07:34:28.522Z,35.17
2023-02-16T07:36:55.375Z,37.20
2023-02-16T07:41:49.017Z,35.63
2023-02-16T07:46:42.535Z,32.92
2023-02-16T07:49:09.484Z,38.15
2023-02-16T07:51:36.358Z,34.45
2023-02-16T07:54:03.288Z,32.10
2023-02-16T07:56:32.103Z,32.03
2023-02-16T07:59:00.466Z,34.25
2023-02-16T08:01:28.476Z,35.58
2023-02-16T08:03:55.376Z,36.15
2023-02-16T08:06:22.436Z,37.42
2023-02-16T08:08:49.923Z,37.35
2023-02-16T08:11:24.321Z,34.05
2023-02-16T08:13:51.980Z,41.45
2023-02-16T08:16:21.464Z,38.15
2023-02-16T08:18:48.596Z,36.55
2023-02-16T08:21:18.285Z,37.22
2023-02-16T08:23:49.607Z,43.10
2023-02-16T08:26:17.611Z,38.10
2023-02-16T08:28:50.236Z,36.67
2023-02-16T08:31:20.882Z,40.58
2023-02-16T08:33:48.276Z,38.08
2023-02-16T08:36:23.670Z,36.08
2023-02-16T08:38:52.414Z,39.00
2023-02-16T08:41:20.340Z,40.22
2023-02-16T08:43:48.341Z,37.17
2023-02-16T08:46:16.475Z,37.70
2023-02-16T08:48:45.382Z,44.22
2023-02-16T08:51:19.988Z,40.47
2023-02-16T08:53:47.113Z,37.38
2023-02-16T08:56:15.026Z,36.65
2023-02-16T08:58:42.486Z,38.65
2023-02-16T09:01:10.891Z,38.20
2023-02-16T09:03:41.353Z,38.28
2023-02-16T09:06:09.077Z,36.60
2023-02-16T09:08:39.129Z,44.13
2023-02-16T09:11:08.901Z,34.90
2023-02-16T09:13:36.496Z,37.50
2023-02-16T09:16:08.204Z,34.83
2023-02-16T09:18:36.945Z,34.60
2023-02-16T09:21:12.827Z,39.88
2023-02-16T09:23:41.393Z,34.72
2023-02-16T09:26:10.560Z,33.47
2023-02-16T09:28:38.388Z,37.50
2023-02-16T09:31:27.467Z,35.55
2023-02-16T09:33:57.093Z,36.42
2023-02-16T09:36:24.610Z,35.85
2023-02-16T09:38:51.640Z,35.08
2023-02-16T09:41:37.780Z,33.78
2023-02-16T09:44:21.052Z,35.95
2023-02-16T09:46:49.136Z,34.28
2023-02-16T09:49:30.478Z,33.33
2023-02-16T09:52:05.789Z,34.00
2023-02-16T09:54:40.693Z,34.80
2023-02-16T09:57:16.975Z,31.87
2023-02-16T10:00:04.623Z,34.63
2023-02-16T10:02:45.952Z,33.42
2023-02-16T10:05:22.009Z,33.55
2023-02-16T10:14:32.774Z,34.65
2023-02-16T10:23:52.888Z,35.20
2023-02-16T10:26:28.863Z,34.20
2023-02-16T10:32:30.770Z,30.95
2023-02-16T10:35:01.298Z,34.15
2023-02-16T10:41:34.511Z,33.80
2023-02-16T10:44:14.036Z,29.87
2023-02-16T10:46:43.666Z,30.70
2023-02-16T10:52:54.670Z,28.17
2023-02-16T10:55:22.084Z,29.90
2023-02-16T11:04:37.810Z,30.48
2023-02-16T11:14:23.846Z,28.65
2023-02-16T11:17:08.770Z,28.70
2023-02-16T11:19:35.707Z,28.92
2023-02-16T11:22:02.817Z,29.60
2023-02-16T11:24:32.557Z,29.12
2023-02-16T11:27:03.641Z,28.77
2023-02-16T11:29:31.830Z,30.73
2023-02-16T11:32:02.203Z,29.20
2023-02-16T11:34:34.182Z,28.87
2023-02-16T11:37:05.624Z,29.83
2023-02-16T11:39:37.804Z,29.02
2023-02-16T11:42:22.446Z,29.90
2023-02-16T11:44:53.882Z,26.35
2023-02-16T11:51:32.046Z,26.05
2023-02-16T11:54:05.474Z,26.50
2023-02-16T11:56:34.509Z,31.27
2023-02-16T12:02:40.789Z,26.80
2023-02-16T12:05:26.298Z,29.55
2023-02-16T12:11:46.090Z,29.52
2023-02-16T12:14:57.245Z,30.20
2023-02-16T12:24:24.840Z,28.25
2023-02-16T12:26:55.748Z,29.98
2023-02-16T12:29:45.015Z,30.45
2023-02-16T12:32:20.768Z,30.25
2023-02-16T12:34:57.797Z,29.17
2023-02-16T12:41:36.488Z,28.92
2023-02-16T12:44:08.556Z,30.60
2023-02-16T12:46:39.720Z,32.15
2023-02-16T12:53:17.566Z,32.53
2023-02-16T12:55:49.212Z,28.33
2023-02-16T13:02:25.276Z,33.17
2023-02-16T13:05:12.034Z,31.70
2023-02-16T13:11:46.029Z,30.92
2023-02-16T13:14:31.037Z,32.15
2023-02-16T13:17:02.169Z,33.72
2023-02-16T13:19:29.242Z,31.83
2023-02-16T13:22:11.520Z,29.70
2023-02-16T13:24:52.945Z,28.85
2023-02-16T13:35:00.381Z,28.83
2023-02-16T13:41:36.616Z,31.15
2023-02-16T13:44:16.002Z,32.47
2023-02-16T13:46:50.335Z,32.35
2023-02-16T13:52:45.622Z,32.50
2023-02-16T13:55:39.505Z,33.45
2023-02-16T14:04:23.862Z,28.52
2023-02-16T14:07:13.929Z,30.20
2023-02-16T14:09:41.121Z,30.37
2023-02-16T14:12:31.937Z,29.65
2023-02-16T14:15:05.174Z,30.02
2023-02-16T14:21:39.354Z,30.62
2023-02-16T14:24:10.957Z,29.33
2023-02-16T14:27:15.940Z,34.03
2023-02-16T14:30:14.806Z,30.88
2023-02-16T14:32:47.711Z,34.65
2023-02-16T14:35:29.495Z,32.78
2023-02-16T14:41:39.038Z,31.40
2023-02-16T14:44:06.171Z,31.67
2023-02-16T14:46:50.999Z,33.08
2023-02-16T14:53:17.970Z,32.42
2023-02-16T14:56:10.039Z,34.17
2023-02-16T15:05:21.777Z,42.67
2023-02-16T15:11:58.544Z,40.58
2023-02-16T15:14:26.160Z,39.33
2023-02-16T15:16:54.129Z,41.90
2023-02-16T15:23:04.195Z,40.38
2023-02-16T15:25:39.622Z,43.70
2023-02-16T15:28:12.263Z,40.47
2023-02-16T15:30:47.435Z,42.70
2023-02-16T15:33:23.667Z,40.15
2023-02-16T15:36:01.921Z,44.22
2023-02-16T15:42:21.023Z,44.13
2023-02-16T15:44:48.392Z,42.22
2023-02-16T15:51:34.111Z,46.17
2023-02-16T15:54:06.749Z,46.22
2023-02-16T15:56:38.457Z,42.28
2023-02-16T16:02:29.126Z,43.17
2023-02-16T16:04:58.801Z,45.95
2023-02-16T16:11:37.967Z,42.17
2023-02-16T16:14:06.301Z,42.92
2023-02-16T16:16:34.053Z,45.72
2023-02-16T16:22:43.046Z,44.92
2023-02-16T16:25:35.453Z,43.67
2023-02-16T16:31:43.674Z,43.45
2023-02-16T16:34:15.888Z,45.83
2023-02-16T16:36:56.722Z,46.13
2023-02-16T16:39:31.796Z,49.08
2023-02-16T16:42:01.645Z,46.35
2023-02-16T16:44:42.729Z,47.83
2023-02-16T16:53:52.600Z,45.08
2023-02-16T16:56:20.586Z,53.65
2023-02-16T17:11:06.531Z,47.75
2023-02-16T17:13:33.429Z,56.78
2023-02-16T17:16:07.383Z,53.75
2023-02-16T17:21:50.696Z,53.30
2023-02-16T17:24:17.833Z,50.35
2023-02-16T17:26:44.714Z,52.25
2023-02-16T17:32:59.027Z,51.22
2023-02-16T17:35:28.211Z,54.20
2023-02-16T17:41:41.829Z,47.83
2023-02-16T17:44:08.683Z,49.03
2023-02-16T17:52:44.268Z,48.42
2023-02-16T17:55:12.362Z,46.85
2023-02-16T17:57:39.838Z,51.40
2023-02-16T18:00:09.411Z,48.05
2023-02-16T18:02:36.278Z,47.70
2023-02-16T18:14:08.482Z,53.60
2023-02-16T18:16:35.518Z,51.40
2023-02-16T18:29:33.121Z,51.37
2023-02-16T18:32:00.008Z,50.60
2023-02-16T18:34:26.936Z,54.65
2023-02-16T18:36:53.795Z,53.00
2023-02-16T18:42:42.986Z,53.70
2023-02-16T18:45:10.073Z,56.33
2023-02-16T18:54:09.974Z,52.42
2023-02-16T18:56:38.016Z,57.78
2023-02-16T18:59:04.911Z,59.58
2023-02-16T19:01:33.334Z,59.63
2023-02-16T19:04:01.320Z,59.55
2023-02-16T19:06:28.837Z,59.33
2023-02-16T19:15:12.666Z,69.78
2023-02-16T19:17:42.133Z,51.28
2023-02-16T19:20:12.352Z,62.42
2023-02-16T19:22:39.219Z,58.83
2023-02-16T19:27:36.157Z,62.45
2023-02-16T19:30:03.185Z,59.70
2023-02-16T19:32:32.791Z,59.78
2023-02-16T19:34:59.635Z,66.97
2023-02-16T19:41:28.779Z,63.97
2023-02-16T19:43:55.999Z,57.45
2023-02-16T19:46:23.793Z,62.90
2023-02-16T19:48:50.696Z,62.40
2023-02-16T19:51:18.033Z,61.90
2023-02-16T19:53:44.960Z,63.83
2023-02-16T19:56:13.924Z,58.22
2023-02-16T19:58:41.054Z,59.85
2023-02-16T20:01:19.167Z,55.15
2023-02-16T20:03:46.511Z,60.72
2023-02-16T20:06:31.551Z,51.88
2023-02-16T20:08:59.762Z,48.00
2023-02-16T20:11:28.814Z,52.10
2023-02-16T20:13:56.082Z,45.03
2023-02-16T20:16:24.012Z,49.88
2023-02-16T20:25:00.790Z,57.97
2023-02-16T20:27:28.682Z,52.72
2023-02-16T20:29:55.796Z,54.58
2023-02-16T20:32:26.681Z,52.10
2023-02-16T20:34:53.561Z,55.28
2023-02-16T20:41:29.350Z,56.17
2023-02-16T20:43:56.442Z,59.08
2023-02-16T20:46:24.053Z,61.42
2023-02-16T20:48:51.734Z,59.63
2023-02-16T20:51:19.421Z,59.35
2023-02-16T20:53:46.480Z,58.65
2023-02-16T20:56:20.668Z,59.30
2023-02-16T20:58:49.716Z,56.67
2023-02-16T21:01:27.751Z,53.33
2023-02-16T21:03:56.070Z,53.83
2023-02-16T21:06:23.158Z,52.95
2023-02-16T21:12:30.621Z,57.65
2023-02-16T21:21:38.736Z,50.08
2023-02-16T21:24:05.844Z,48.53
2023-02-16T21:26:32.747Z,47.15
2023-02-16T21:32:40.876Z,44.20
2023-02-16T21:35:07.854Z,46.30
2023-02-16T21:37:35.373Z,43.28
2023-02-16T21:40:20.961Z,42.58
2023-02-16T21:42:47.930Z,42.83
2023-02-16T21:45:14.805Z,42.72
2023-02-16T21:48:02.310Z,47.53
2023-02-16T21:50:30.146Z,44.03
2023-02-16T21:52:58.318Z,45.08
2023-02-16T21:55:43.942Z,39.22
2023-02-16T21:58:10.992Z,40.35
2023-02-16T22:00:38.863Z,44.15
2023-02-16T22:03:06.293Z,44.05
2023-02-16T22:05:34.561Z,45.20
2023-02-16T22:08:01.683Z,44.40
2023-02-16T22:10:28.908Z,45.65
2023-02-16T22:12:56.973Z,40.12
2023-02-16T22:15:26.052Z,40.78
2023-02-16T22:21:41.324Z,41.75
2023-02-16T22:24:08.875Z,41.35
2023-02-16T22:26:36.283Z,43.83
2023-02-16T22:32:43.891Z,42.62
2023-02-16T22:37:37.483Z,45.67
2023-02-16T22:40:04.593Z,39.00
2023-02-16T22:42:31.714Z,44.00
2023-02-16T22:44:58.538Z,44.03
2023-02-16T22:51:40.267Z,42.62
2023-02-16T22:54:07.488Z,40.40
2023-02-16T22:56:34.928Z,39.58
2023-02-16T22:59:02.040Z,43.33
2023-02-16T23:01:30.022Z,42.13
2023-02-16T23:03:58.794Z,43.20
2023-02-16T23:06:37.092Z,42.58
2023-02-16T23:09:06.656Z,47.25
2023-02-16T23:11:34.786Z,44.53
2023-02-16T23:14:02.138Z,43.75
2023-02-16T23:16:29.029Z,52.38
2023-02-16T23:22:36.614Z,43.42
2023-02-16T23:25:22.187Z,47.40
2023-02-16T23:34:04.530Z,43.55
2023-02-16T23:36:33.234Z,40.08
2023-02-16T23:39:01.246Z,44.47
2023-02-16T23:41:28.226Z,45.45
2023-02-16T23:43:56.529Z,46.30
2023-02-16T23:46:24.853Z,41.67
2023-02-16T23:48:51.713Z,42.62
2023-02-16T23:51:18.829Z,42.92
2023-02-16T23:53:45.734Z,41.28
2023-02-16T23:56:19.838Z,46.35
2023-02-16T23:58:47.244Z,41.75
